Dorothy Ann — WDE8761 — position and weather

sailwx.info

Track history (hours):
 
Tides and Currents Weather Stations Pressure Air Temp Water Temp Dewpoint Dewpoint Depression Visibility Wind Speed Wind Dir Waves Ship Positions

Dorothy Ann

Owner: THE INTERLAKE STEAMSHIP COMPANY, Middleburg Heights, OH. More information available from US FCC via Universal Licensing System and Coast Guard Vessel Documentation Center.

Last reported at 2016-Dec-25 14:00 UTC. Time now 2017-Jan-23 20:52 UTC.
Position N 42°06' W 080°06'.
Warning: this ship's position is 29 days out of date.

Length 215 m; draft 5.9 m.

Type: Cargo ship. MMSI: 367409260.

Wind from 090 at 4 knots

Barometer 1034.4 mb
Air temperature 2.8 ° C
Water temperature 9.2 ° C

Date/timePositionNaut miles runAvg speedWind from/ knotsBaromVisibWave heightAir tempDewpointWater temp
2016-Dec-25 14:00N 42°06' W 080°06'0 0.0 090 / 41034.4 2.8 9.2
2016-Dec-25 13:00N 42°06' W 080°06'0 0.0 070 / 31034.0 2.3 9.0
2016-Dec-25 12:00N 42°06' W 080°06'0 0.0 350 / 61033.0 2.2 8.6
2016-Dec-25 11:00N 42°06' W 080°06'0 0.0 080 / 11032.0 2.2 8.9
2016-Dec-25 10:00N 42°06' W 080°06'0 0.0 220 / 21032.0 2.3 9.0
2016-Dec-25 09:00N 42°06' W 080°06'0 0.0 240 / 61031.7 2.3 9.9
2016-Dec-25 08:00N 42°06' W 080°06'0 0.0 240 / 61031.3 2.3 9.5
2016-Dec-25 07:00N 42°06' W 080°06'0 0.0 240 / 41031.0 2.4 9.6
2016-Dec-25 06:00N 42°06' W 080°06'0 0.0 280 / 61030.3 2.2 10.5
2016-Dec-25 05:00N 42°06' W 080°06'0 0.0 240 / 41029.6 2.3 10.7
2016-Dec-25 04:00N 42°06' W 080°06'0 0.0 230 / 31029.6 2.3 10.7
2016-Dec-25 03:00N 42°06' W 080°06'0 0.0 270 / 81029.6 2.3 10.4
2016-Dec-25 02:00N 42°06' W 080°06'6 6.0 240 / 51028.6 2.2 9.7
2016-Dec-25 01:00N 42°12' W 080°06'4 4.4 060 / 91027.9 2.4 10.9
2016-Dec-25 00:00N 42°12' W 080°12'1110.7 300 / 91027.3 2.8 12.0
2016-Dec-24 23:00N 42°06' W 080°24'9 8.9 260 / 121026.6 5.0 12.2
2016-Dec-24 22:00N 42°06' W 080°36'1110.7 300 / 111025.9 2.6 12.2
2016-Dec-24 21:00N 42°00' W 080°48'9 8.9 300 / 101024.9 2.6 11.6
2016-Dec-24 20:00N 42°00' W 081°00'1110.8 260 / 91024.2 2.8 13.2
2016-Dec-24 19:00N 41°54' W 081°12'1110.8 280 / 101023.2 2.9 12.2
2016-Dec-24 18:00N 41°48' W 081°24'1110.8 290 / 121022.9 3.2 12.2
2016-Dec-24 17:00N 41°42' W 081°36'7 7.5 290 / 121022.5 3.4 13.4
2016-Dec-24 16:00N 41°36' W 081°42'6 6.0 280 / 161022.5 3.2 13.3
2016-Dec-24 15:00N 41°30' W 081°42'0 0.0 110 / 91021.5 3.4 12.4
2016-Dec-24 14:00N 41°30' W 081°42'0 0.0 280 / 71020.1 4.2 13.3
2016-Dec-24 13:00N 41°30' W 081°42'0 0.0 290 / 61018.5 5.5 14.0
2016-Dec-24 12:00N 41°30' W 081°42'0 0.0 230 / 141017.4 5.8 13.6
2016-Dec-24 11:00N 41°30' W 081°42'0 0.0 200 / 151016.8 6.2 13.0
2016-Dec-24 10:00N 41°30' W 081°42'0 0.0 170 / 91016.1 6.3 12.7
2016-Dec-24 09:00N 41°30' W 081°42'0 0.0 180 / 101016.1 5.5 13.3
2016-Dec-24 08:00N 41°30' W 081°42'0 0.0 190 / 111016.8 6.3 13.1
2016-Dec-24 07:00N 41°30' W 081°42'0 0.0 150 / 81016.8 6.5 12.9
2016-Dec-24 06:00N 41°30' W 081°42'6 6.0 170 / 101017.8 4.8 11.9
2016-Dec-24 05:00N 41°36' W 081°42'1110.8 190 / 191018.1 5.2 12.4
2016-Dec-24 04:00N 41°42' W 081°30'7 7.5 160 / 151017.4 4.9 12.9
2016-Dec-24 03:00N 41°48' W 081°24'1110.8 180 / 181018.8 5.3 12.7
2016-Dec-24 02:00N 41°54' W 081°12'9 8.9 210 / 171021.2 5.1 11.8
2016-Dec-24 01:00N 41°54' W 081°00'9 8.9 170 / 121021.8 3.1 11.1
2016-Dec-24 00:00N 41°54' W 080°48'0 0.0 150 / 141022.5 2.4 11.7
2016-Dec-23 23:00N 41°54' W 080°48'0 0.0 160 / 121024.5 2.6 11.1
2016-Dec-23 22:00N 41°54' W 080°48'0 0.0 160 / 101025.6 2.5 11.0
2016-Dec-23 21:00N 41°54' W 080°48'0 0.0 130 / 121026.6 2.7 11.8
2016-Dec-23 20:00N 41°54' W 080°48'0 0.0 180 / 101026.9 3.1 11.1
2016-Dec-23 19:00N 41°54' W 080°48'0 0.0 160 / 91027.3 3.3 11.1
2016-Dec-23 18:00N 41°54' W 080°48'0 0.0 190 / 101028.6 3.2 11.8
2016-Dec-23 17:00N 41°54' W 080°48'0 0.0 210 / 101029.6 4.5 11.4
2016-Dec-23 16:00N 41°54' W 080°48'0 0.0 220 / 121030.0 2.9 11.5
2016-Dec-23 15:00N 41°54' W 080°48'0 0.0 210 / 101030.3 1.7 11.2
2016-Dec-23 14:00N 41°54' W 080°48'9 8.9 160 / 151029.3 0.6 11.2
2016-Dec-23 13:00N 41°54' W 081°00'9 8.9 200 / 131028.9 0.5 12.0
2016-Dec-23 12:00N 41°54' W 081°12'1110.8 220 / 201028.6 0.8 13.2
2016-Dec-23 11:00N 41°48' W 081°24'1110.8 220 / 201028.6 1.8 13.8
2016-Dec-23 10:00N 41°42' W 081°36'7 7.5 200 / 191028.6 3.8 13.8
2016-Dec-23 09:00N 41°36' W 081°42'6 6.0 210 / 161028.6 2.3 13.4
2016-Dec-23 08:00N 41°30' W 081°42'0 0.0 240 / 31029.3 0.8 13.5
2016-Dec-23 07:00N 41°30' W 081°42'0 0.0 210 / 81029.3 0.7 14.2
2016-Dec-23 06:00N 41°30' W 081°42'0 0.0 230 / 91029.3 1.4 14.1
2016-Dec-23 05:00N 41°30' W 081°42'0 0.0 180 / 81029.3 1.5 13.7
2016-Dec-23 04:00N 41°30' W 081°42'0 0.0 260 / 61028.6 2.1 13.6
2016-Dec-23 03:00N 41°30' W 081°42'0 0.0 200 / 81028.9 2.4 13.3
2016-Dec-23 02:00N 41°30' W 081°42'0 0.0 230 / 61028.6 2.8 13.3
2016-Dec-23 01:00N 41°30' W 081°42'6 6.0 260 / 41027.9 3.2 11.7
2016-Dec-23 00:00N 41°36' W 081°42'7 7.5 250 / 191026.9 5.6 12.8
2016-Dec-22 23:00N 41°42' W 081°36'1110.8 260 / 201026.2 3.8 13.1
2016-Dec-22 22:00N 41°48' W 081°24'7 7.5 250 / 191025.2 3.7 13.2
2016-Dec-22 21:00N 41°54' W 081°18'9 8.9 290 / 201023.9 3.2 13.7
2016-Dec-22 20:00N 41°54' W 081°06'9 8.9 280 / 241022.9 5.2 12.7
2016-Dec-22 19:00N 41°54' W 080°54'4 4.5 300 / 181021.5 3.5 12.2
2016-Dec-22 18:00N 41°54' W 080°48'0 0.0 280 / 201020.5 2.3 11.2
2016-Dec-22 17:00N 41°54' W 080°48'0 0.0 280 / 181020.1 2.3 11.4
2016-Dec-22 16:00N 41°54' W 080°48'0 0.0 280 / 181019.8 2.2 11.3
2016-Dec-22 15:00N 41°54' W 080°48'0 0.0 270 / 191018.8 2.2 11.3
2016-Dec-22 14:00N 41°54' W 080°48'0 0.0 270 / 161017.4 2.0 11.5
2016-Dec-22 13:00N 41°54' W 080°48'0 0.0 260 / 181016.8 1.7 11.6
2016-Dec-22 12:00N 41°54' W 080°48'0 0.0 260 / 151015.7 1.7 11.6
2016-Dec-22 11:00N 41°54' W 080°48'0 0.0 270 / 181014.7 2.0 11.4
2016-Dec-22 10:00N 41°54' W 080°48'0 0.0 260 / 201014.0 2.5 11.4
2016-Dec-22 09:00N 41°54' W 080°48'0 0.0 240 / 181013.7 2.7 11.4
2016-Dec-22 08:00N 41°54' W 080°48'0 0.0 260 / 121013.7 3.7 11.4
2016-Dec-22 07:00N 41°54' W 080°48'0 0.0 220 / 71013.7 2.5 11.3
2016-Dec-22 06:00N 41°54' W 080°48'0 0.0 210 / 71013.7 2.3 11.4
2016-Dec-22 05:00N 41°54' W 080°48'9 8.9 200 / 161013.7 3.4 11.6
2016-Dec-22 04:00N 41°54' W 081°00'9 8.9 200 / 161014.7 2.9 12.5
2016-Dec-22 03:00N 41°54' W 081°12'1110.8 190 / 231014.7 3.3 13.8
2016-Dec-22 02:00N 41°48' W 081°24'1110.8 180 / 211016.4 2.3 13.1
2016-Dec-22 01:00N 41°42' W 081°36'7 7.5 180 / 151017.8 2.3 14.0
2016-Dec-22 00:00N 41°36' W 081°42'6 6.0 190 / 171018.8 2.3 13.6
2016-Dec-21 23:00N 41°30' W 081°42'0 0.0 160 / 61019.5 1.8 12.1
2016-Dec-21 22:00N 41°30' W 081°42'0 0.0 100 / 91020.1 2.5 12.8
2016-Dec-21 21:00N 41°30' W 081°42'0 0.0 150 / 101020.5 2.7 12.4
2016-Dec-21 20:00N 41°30' W 081°42'0 0.0 150 / 51021.2 3.0 12.4
2016-Dec-21 19:00N 41°30' W 081°42'0 0.0 160 / 71021.5 2.6 12.2
2016-Dec-21 18:00N 41°30' W 081°42'0 0.0 260 / 111022.2 1.8 12.3
2016-Dec-21 17:00N 41°30' W 081°42'0 0.0 220 / 81023.2 2.1 12.3
2016-Dec-21 16:00N 41°30' W 081°42'0 0.0 170 / 51023.5 0.2 11.7
2016-Dec-21 15:00N 41°30' W 081°42'0 0.0 210 / 81023.9 -1.0 11.6
2016-Dec-21 14:00N 41°30' W 081°42'0 0.0 230 / 91023.5 -1.7 11.8
2016-Dec-21 13:00N 41°30' W 081°42'0 0.0 220 / 81023.2 -2.2 11.9
2016-Dec-21 12:00N 41°30' W 081°42'0 0.0 220 / 81022.2 -2.2 11.8
2016-Dec-21 11:00N 41°30' W 081°42'0 0.0 210 / 81022.5 -1.9 11.7
2016-Dec-21 10:00N 41°30' W 081°42'0 0.0 240 / 101022.2 -1.6 12.0
2016-Dec-21 09:00N 41°30' W 081°42'0 0.0 210 / 81021.5 -1.3 12.0
2016-Dec-21 08:00N 41°30' W 081°42'0 0.0 210 / 81021.2 -1.1 11.4
2016-Dec-21 07:00N 41°30' W 081°42'0 0.0 210 / 101021.2 -1.2 11.4
2016-Dec-21 06:00N 41°30' W 081°42'0 0.0 220 / 111020.8 -1.0 11.3
2016-Dec-21 05:00N 41°30' W 081°42'7 7.5 240 / 171021.2 -0.6 11.0
2016-Dec-21 04:00N 41°36' W 081°36'7 7.5 250 / 301021.2 1.1 12.8
2016-Dec-21 03:00N 41°42' W 081°30'1110.8 250 / 351020.5 1.2 13.2
2016-Dec-21 02:00N 41°48' W 081°18'4 4.5 240 / 381019.5 1.5 13.0
2016-Dec-21 01:00N 41°48' W 081°12'7 7.5 240 / 351019.5 1.8 13.4
2016-Dec-21 00:00N 41°54' W 081°06'4 4.5 250 / 451020.1 2.5 13.8
2016-Dec-20 23:00N 41°54' W 081°00'4 4.5 230 / 271020.1 3.1 13.6
2016-Dec-20 22:00N 41°54' W 080°54'4 4.5 190 / 231019.5 1.7 11.8
2016-Dec-20 21:00N 41°54' W 080°48'0 0.0 190 / 191020.5 1.2 11.2
2016-Dec-20 20:00N 41°54' W 080°48'0 0.0 190 / 201021.2 0.7 11.3
2016-Dec-20 19:00N 41°54' W 080°48'0 0.0 190 / 221022.2 -0.1 11.2
2016-Dec-20 18:00N 41°54' W 080°48'0 0.0 180 / 181023.5 -1.6 11.2
2016-Dec-20 17:00N 41°54' W 080°48'0 0.0 190 / 151025.2 -3.6 11.2
2016-Dec-20 16:00N 41°54' W 080°48'0 0.0 140 / 61027.9 -4.8 10.9
2016-Dec-20 15:00N 41°54' W 080°48'0 0.0 190 / 101029.3 -5.8 10.9
2016-Dec-20 14:00N 41°54' W 080°48'0 0.0 1030.3 -7.5 10.7
2016-Dec-20 13:00N 41°54' W 080°48'0 0.0 270 / 121031.3 -8.9 9.9
2016-Dec-20 12:00N 41°54' W 080°48'0 0.0 1031.7 -9.1 10.0
2016-Dec-20 11:00N 41°54' W 080°48'0 0.0 200 / 101032.3 -9.8 10.0
2016-Dec-20 10:00N 41°54' W 080°48'4 4.5 100 / 181032.7 -8.9 9.7
2016-Dec-20 09:00N 41°54' W 080°54'9 8.9 180 / 151033.4 -8.5 12.7
2016-Dec-20 08:00N 41°54' W 081°06'1110.8 210 / 201034.4 -6.0 12.7
2016-Dec-20 07:00N 41°48' W 081°18'1110.8 190 / 141034.4 -3.2 12.6
2016-Dec-20 06:00N 41°42' W 081°30'7 7.5 200 / 151035.0 -5.3 12.7
2016-Dec-20 05:00N 41°36' W 081°36'7 7.5 200 / 121036.1 -7.2 11.3
2016-Dec-20 04:00N 41°30' W 081°42'0 0.0 140 / 71036.7 -7.4 12.0
2016-Dec-20 03:00N 41°30' W 081°42'0 0.0 100 / 61037.4 -5.9 11.7
2016-Dec-20 02:00N 41°30' W 081°42'0 0.0 200 / 131037.4 -6.6 11.2
2016-Dec-20 01:00N 41°30' W 081°42'0 0.0 220 / 121037.8 -6.0 12.6
2016-Dec-20 00:00N 41°30' W 081°42'0 0.0 200 / 91038.8 -6.3 12.7
2016-Dec-19 23:00N 41°30' W 081°42'0 0.0 210 / 121038.1 -5.8 12.5
2016-Dec-19 22:00N 41°30' W 081°42'0 0.0 270 / 101038.4 -5.9 12.7
2016-Dec-19 21:00N 41°30' W 081°42'0 0.0 260 / 91038.4 -5.9 13.0
2016-Dec-19 20:00N 41°30' W 081°42'0 0.0 150 / 71038.8 -5.4 13.1
2016-Dec-19 19:00N 41°30' W 081°42'0 0.0 260 / 31039.8 -4.3 12.2
2016-Dec-19 18:00N 41°30' W 081°42'7 7.5 130 / 111040.1 -5.9 12.3
2016-Dec-19 17:00N 41°36' W 081°36'1110.8 170 / 121040.1 -6.6 13.5
2016-Dec-19 16:00N 41°42' W 081°24'7 7.5 040 / 111040.1 -5.8 13.8
2016-Dec-19 15:00N 41°48' W 081°18'1110.8 150 / 141040.1 -5.5 14.7
2016-Dec-19 14:00N 41°54' W 081°06'9 8.9 140 / 171039.8 -5.2 14.6
2016-Dec-19 13:00N 41°54' W 080°54'4 4.5 170 / 201039.4 -5.8 14.0
2016-Dec-19 12:00N 41°54' W 080°48'0 0.0 280 / 101039.4 -5.6 11.5
2016-Dec-18 08:00N 41°54' W 080°48'0 0.0 210 / 181006.6 -1.3 11.0
2016-Dec-18 07:00N 41°54' W 080°48'0 0.0 230 / 121004.9 -0.4 11.3
2016-Dec-18 06:00N 41°54' W 080°48'0 0.0 240 / 51003.9 0.2 11.6
2016-Dec-18 05:00N 41°54' W 080°48'0 0.0 270 / 71004.9 0.6 11.5
2016-Dec-18 04:00N 41°54' W 080°48'0 0.0 330 / 81005.6 0.8 11.7
2016-Dec-18 03:00N 41°54' W 080°48'4 4.5 060 / 71004.9 1.1 11.5
2016-Dec-18 02:00N 41°54' W 080°54'9 8.9 340 / 121005.9 1.2 13.8
2016-Dec-18 01:00N 41°54' W 081°06'9 8.9 350 / 161005.9 1.4 14.5
2016-Dec-18 00:00N 41°54' W 081°18'1110.8 350 / 141005.6 2.2 14.6
2016-Dec-17 23:00N 41°48' W 081°30'7 7.5 350 / 161004.9 2.7 14.5
2016-Dec-17 22:00N 41°42' W 081°36'1312.8 340 / 41004.9 3.2 13.4
2016-Dec-17 21:00N 41°30' W 081°42'0 0.0 340 / 31004.6 2.9 11.6
2016-Dec-17 20:00N 41°30' W 081°42'0 0.0 170 / 51004.2 2.9 12.9
2016-Dec-17 19:00N 41°30' W 081°42'0 0.0 170 / 101004.6 3.0 13.1
2016-Dec-17 18:00N 41°30' W 081°42'0 0.0 150 / 71005.2 2.2 13.2
2016-Dec-17 17:00N 41°30' W 081°42'0 0.0 140 / 61006.3 1.4 13.5
2016-Dec-17 16:00N 41°30' W 081°42'0 0.0 150 / 91007.3 1.1 13.2
2016-Dec-17 15:00N 41°30' W 081°42'0 0.0 150 / 71007.3 1.2 13.3
2016-Dec-17 14:00N 41°30' W 081°42'0 0.0 290 / 361006.9 0.8 13.8
2016-Dec-17 13:00N 41°30' W 081°42'0 0.0 230 / 21006.9 0.3 13.6
2016-Dec-17 12:00N 41°30' W 081°42'0 0.0 1006.3 0.1 13.7
2016-Dec-17 11:00N 41°30' W 081°42'0 0.0 110 / 571006.3 -1.9 13.6
2016-Dec-17 10:00N 41°30' W 081°42'0 0.0 020 / 611005.6 -3.1 12.6
2016-Dec-17 09:00N 41°30' W 081°42'7 7.5 340 / 141006.6 -4.7 12.5
2016-Dec-17 08:00N 41°36' W 081°36'7 7.5 160 / 221008.0 -4.1 14.0
2016-Dec-17 07:00N 41°42' W 081°30'1110.8 150 / 261008.6 -3.6 14.3
2016-Dec-17 06:00N 41°48' W 081°18'1110.8 140 / 201011.3 -4.9 14.6
2016-Dec-17 05:00N 41°54' W 081°06'4 4.5 170 / 201014.7 -6.6 14.5
2016-Dec-17 04:00N 41°54' W 081°00'9 8.9 160 / 201015.4 -6.9 13.8
2016-Dec-17 03:00N 41°54' W 080°48'0 0.0 150 / 191017.8 -7.1 11.3
2016-Dec-17 02:00N 41°54' W 080°48'0 0.0 140 / 171018.8 -7.5 11.5
2016-Dec-17 01:00N 41°54' W 080°48'0 0.0 130 / 141020.1 -7.8 11.5
2016-Dec-17 00:00N 41°54' W 080°48'0 0.0 330 / 171021.5 -8.1 11.8
2016-Dec-16 23:00N 41°54' W 080°48'0 0.0 120 / 181021.8 -8.1 11.4
2016-Dec-16 22:00N 41°54' W 080°48'0 0.0 080 / 171023.2 -8.3 11.1
2016-Dec-16 21:00N 41°54' W 080°48'0 0.0 120 / 151023.9 -8.0 11.0
2016-Dec-16 20:00N 41°54' W 080°48'0 0.0 080 / 131024.9 -8.0 11.0
2016-Dec-16 19:00N 41°54' W 080°48'0 0.0 310 / 131024.9 -8.3 11.0
2016-Dec-16 18:00N 41°54' W 080°48'0 0.0 070 / 121025.9 -8.7 10.9
2016-Dec-16 17:00N 41°54' W 080°48'1313.4 180 / 171026.9 -7.9 13.5
2016-Dec-16 16:00N 41°54' W 081°06'1110.8 210 / 191028.6 -8.1 14.4
2016-Dec-16 15:00N 41°48' W 081°18'1110.8 220 / 181028.6 -8.3 14.7
2016-Dec-16 14:00N 41°42' W 081°30'7 7.5 200 / 191028.3 -9.2 14.2
2016-Dec-16 13:00N 41°36' W 081°36'7 7.5 180 / 171028.9 -11.0 14.2
2016-Dec-16 12:00N 41°30' W 081°42'   220 / 111029.3 -11.2 12.3
Track history (hours):
 
Tides and Currents Weather Stations Pressure Air Temp Water Temp Dewpoint Dewpoint Depression Visibility Wind Speed Wind Dir Waves Ship Positions

Dorothy Ann

Owner: THE INTERLAKE STEAMSHIP COMPANY, Middleburg Heights, OH. More information available from US FCC via Universal Licensing System and Coast Guard Vessel Documentation Center.

Last reported at 2016-Dec-25 14:00 UTC. Time now 2017-Jan-23 20:52 UTC.
Position N 42°06' W 080°06'.
Warning: this ship's position is 29 days out of date.

Length 215 m; draft 5.9 m.

Type: Cargo ship. MMSI: 367409260.

Wind from 090 at 4 knots

Barometer 1034.4 mb
Air temperature 2.8 ° C
Water temperature 9.2 ° C

Date/timePositionNaut miles runAvg speedWind from/ knotsBaromVisibWave heightAir tempDewpointWater temp
2016-Dec-25 14:00N 42°06' W 080°06'0 0.0 090 / 41034.4 2.8 9.2
2016-Dec-25 13:00N 42°06' W 080°06'0 0.0 070 / 31034.0 2.3 9.0
2016-Dec-25 12:00N 42°06' W 080°06'0 0.0 350 / 61033.0 2.2 8.6
2016-Dec-25 11:00N 42°06' W 080°06'0 0.0 080 / 11032.0 2.2 8.9
2016-Dec-25 10:00N 42°06' W 080°06'0 0.0 220 / 21032.0 2.3 9.0
2016-Dec-25 09:00N 42°06' W 080°06'0 0.0 240 / 61031.7 2.3 9.9
2016-Dec-25 08:00N 42°06' W 080°06'0 0.0 240 / 61031.3 2.3 9.5
2016-Dec-25 07:00N 42°06' W 080°06'0 0.0 240 / 41031.0 2.4 9.6
2016-Dec-25 06:00N 42°06' W 080°06'0 0.0 280 / 61030.3 2.2 10.5
2016-Dec-25 05:00N 42°06' W 080°06'0 0.0 240 / 41029.6 2.3 10.7
2016-Dec-25 04:00N 42°06' W 080°06'0 0.0 230 / 31029.6 2.3 10.7
2016-Dec-25 03:00N 42°06' W 080°06'0 0.0 270 / 81029.6 2.3 10.4
2016-Dec-25 02:00N 42°06' W 080°06'6 6.0 240 / 51028.6 2.2 9.7
2016-Dec-25 01:00N 42°12' W 080°06'4 4.4 060 / 91027.9 2.4 10.9
2016-Dec-25 00:00N 42°12' W 080°12'1110.7 300 / 91027.3 2.8 12.0
2016-Dec-24 23:00N 42°06' W 080°24'9 8.9 260 / 121026.6 5.0 12.2
2016-Dec-24 22:00N 42°06' W 080°36'1110.7 300 / 111025.9 2.6 12.2
2016-Dec-24 21:00N 42°00' W 080°48'9 8.9 300 / 101024.9 2.6 11.6
2016-Dec-24 20:00N 42°00' W 081°00'1110.8 260 / 91024.2 2.8 13.2
2016-Dec-24 19:00N 41°54' W 081°12'1110.8 280 / 101023.2 2.9 12.2
2016-Dec-24 18:00N 41°48' W 081°24'1110.8 290 / 121022.9 3.2 12.2
2016-Dec-24 17:00N 41°42' W 081°36'7 7.5 290 / 121022.5 3.4 13.4
2016-Dec-24 16:00N 41°36' W 081°42'6 6.0 280 / 161022.5 3.2 13.3
2016-Dec-24 15:00N 41°30' W 081°42'0 0.0 110 / 91021.5 3.4 12.4
2016-Dec-24 14:00N 41°30' W 081°42'0 0.0 280 / 71020.1 4.2 13.3
2016-Dec-24 13:00N 41°30' W 081°42'0 0.0 290 / 61018.5 5.5 14.0
2016-Dec-24 12:00N 41°30' W 081°42'0 0.0 230 / 141017.4 5.8 13.6
2016-Dec-24 11:00N 41°30' W 081°42'0 0.0 200 / 151016.8 6.2 13.0
2016-Dec-24 10:00N 41°30' W 081°42'0 0.0 170 / 91016.1 6.3 12.7
2016-Dec-24 09:00N 41°30' W 081°42'0 0.0 180 / 101016.1 5.5 13.3
2016-Dec-24 08:00N 41°30' W 081°42'0 0.0 190 / 111016.8 6.3 13.1
2016-Dec-24 07:00N 41°30' W 081°42'0 0.0 150 / 81016.8 6.5 12.9
2016-Dec-24 06:00N 41°30' W 081°42'6 6.0 170 / 101017.8 4.8 11.9
2016-Dec-24 05:00N 41°36' W 081°42'1110.8 190 / 191018.1 5.2 12.4
2016-Dec-24 04:00N 41°42' W 081°30'7 7.5 160 / 151017.4 4.9 12.9
2016-Dec-24 03:00N 41°48' W 081°24'1110.8 180 / 181018.8 5.3 12.7
2016-Dec-24 02:00N 41°54' W 081°12'9 8.9 210 / 171021.2 5.1 11.8
2016-Dec-24 01:00N 41°54' W 081°00'9 8.9 170 / 121021.8 3.1 11.1
2016-Dec-24 00:00N 41°54' W 080°48'0 0.0 150 / 141022.5 2.4 11.7
2016-Dec-23 23:00N 41°54' W 080°48'0 0.0 160 / 121024.5 2.6 11.1
2016-Dec-23 22:00N 41°54' W 080°48'0 0.0 160 / 101025.6 2.5 11.0
2016-Dec-23 21:00N 41°54' W 080°48'0 0.0 130 / 121026.6 2.7 11.8
2016-Dec-23 20:00N 41°54' W 080°48'0 0.0 180 / 101026.9 3.1 11.1
2016-Dec-23 19:00N 41°54' W 080°48'0 0.0 160 / 91027.3 3.3 11.1
2016-Dec-23 18:00N 41°54' W 080°48'0 0.0 190 / 101028.6 3.2 11.8
2016-Dec-23 17:00N 41°54' W 080°48'0 0.0 210 / 101029.6 4.5 11.4
2016-Dec-23 16:00N 41°54' W 080°48'0 0.0 220 / 121030.0 2.9 11.5
2016-Dec-23 15:00N 41°54' W 080°48'0 0.0 210 / 101030.3 1.7 11.2
2016-Dec-23 14:00N 41°54' W 080°48'9 8.9 160 / 151029.3 0.6 11.2
2016-Dec-23 13:00N 41°54' W 081°00'9 8.9 200 / 131028.9 0.5 12.0
2016-Dec-23 12:00N 41°54' W 081°12'1110.8 220 / 201028.6 0.8 13.2
2016-Dec-23 11:00N 41°48' W 081°24'1110.8 220 / 201028.6 1.8 13.8
2016-Dec-23 10:00N 41°42' W 081°36'7 7.5 200 / 191028.6 3.8 13.8
2016-Dec-23 09:00N 41°36' W 081°42'6 6.0 210 / 161028.6 2.3 13.4
2016-Dec-23 08:00N 41°30' W 081°42'0 0.0 240 / 31029.3 0.8 13.5
2016-Dec-23 07:00N 41°30' W 081°42'0 0.0 210 / 81029.3 0.7 14.2
2016-Dec-23 06:00N 41°30' W 081°42'0 0.0 230 / 91029.3 1.4 14.1
2016-Dec-23 05:00N 41°30' W 081°42'0 0.0 180 / 81029.3 1.5 13.7
2016-Dec-23 04:00N 41°30' W 081°42'0 0.0 260 / 61028.6 2.1 13.6
2016-Dec-23 03:00N 41°30' W 081°42'0 0.0 200 / 81028.9 2.4 13.3
2016-Dec-23 02:00N 41°30' W 081°42'0 0.0 230 / 61028.6 2.8 13.3
2016-Dec-23 01:00N 41°30' W 081°42'6 6.0 260 / 41027.9 3.2 11.7
2016-Dec-23 00:00N 41°36' W 081°42'7 7.5 250 / 191026.9 5.6 12.8
2016-Dec-22 23:00N 41°42' W 081°36'1110.8 260 / 201026.2 3.8 13.1
2016-Dec-22 22:00N 41°48' W 081°24'7 7.5 250 / 191025.2 3.7 13.2
2016-Dec-22 21:00N 41°54' W 081°18'9 8.9 290 / 201023.9 3.2 13.7
2016-Dec-22 20:00N 41°54' W 081°06'9 8.9 280 / 241022.9 5.2 12.7
2016-Dec-22 19:00N 41°54' W 080°54'4 4.5 300 / 181021.5 3.5 12.2
2016-Dec-22 18:00N 41°54' W 080°48'0 0.0 280 / 201020.5 2.3 11.2
2016-Dec-22 17:00N 41°54' W 080°48'0 0.0 280 / 181020.1 2.3 11.4
2016-Dec-22 16:00N 41°54' W 080°48'0 0.0 280 / 181019.8 2.2 11.3
2016-Dec-22 15:00N 41°54' W 080°48'0 0.0 270 / 191018.8 2.2 11.3
2016-Dec-22 14:00N 41°54' W 080°48'0 0.0 270 / 161017.4 2.0 11.5
2016-Dec-22 13:00N 41°54' W 080°48'0 0.0 260 / 181016.8 1.7 11.6
2016-Dec-22 12:00N 41°54' W 080°48'0 0.0 260 / 151015.7 1.7 11.6
2016-Dec-22 11:00N 41°54' W 080°48'0 0.0 270 / 181014.7 2.0 11.4
2016-Dec-22 10:00N 41°54' W 080°48'0 0.0 260 / 201014.0 2.5 11.4
2016-Dec-22 09:00N 41°54' W 080°48'0 0.0 240 / 181013.7 2.7 11.4
2016-Dec-22 08:00N 41°54' W 080°48'0 0.0 260 / 121013.7 3.7 11.4
2016-Dec-22 07:00N 41°54' W 080°48'0 0.0 220 / 71013.7 2.5 11.3
2016-Dec-22 06:00N 41°54' W 080°48'0 0.0 210 / 71013.7 2.3 11.4
2016-Dec-22 05:00N 41°54' W 080°48'9 8.9 200 / 161013.7 3.4 11.6
2016-Dec-22 04:00N 41°54' W 081°00'9 8.9 200 / 161014.7 2.9 12.5
2016-Dec-22 03:00N 41°54' W 081°12'1110.8 190 / 231014.7 3.3 13.8
2016-Dec-22 02:00N 41°48' W 081°24'1110.8 180 / 211016.4 2.3 13.1
2016-Dec-22 01:00N 41°42' W 081°36'7 7.5 180 / 151017.8 2.3 14.0
2016-Dec-22 00:00N 41°36' W 081°42'6 6.0 190 / 171018.8 2.3 13.6
2016-Dec-21 23:00N 41°30' W 081°42'0 0.0 160 / 61019.5 1.8 12.1
2016-Dec-21 22:00N 41°30' W 081°42'0 0.0 100 / 91020.1 2.5 12.8
2016-Dec-21 21:00N 41°30' W 081°42'0 0.0 150 / 101020.5 2.7 12.4
2016-Dec-21 20:00N 41°30' W 081°42'0 0.0 150 / 51021.2 3.0 12.4
2016-Dec-21 19:00N 41°30' W 081°42'0 0.0 160 / 71021.5 2.6 12.2
2016-Dec-21 18:00N 41°30' W 081°42'0 0.0 260 / 111022.2 1.8 12.3
2016-Dec-21 17:00N 41°30' W 081°42'0 0.0 220 / 81023.2 2.1 12.3
2016-Dec-21 16:00N 41°30' W 081°42'0 0.0 170 / 51023.5 0.2 11.7
2016-Dec-21 15:00N 41°30' W 081°42'0 0.0 210 / 81023.9 -1.0 11.6
2016-Dec-21 14:00N 41°30' W 081°42'0 0.0 230 / 91023.5 -1.7 11.8
2016-Dec-21 13:00N 41°30' W 081°42'0 0.0 220 / 81023.2 -2.2 11.9
2016-Dec-21 12:00N 41°30' W 081°42'0 0.0 220 / 81022.2 -2.2 11.8
2016-Dec-21 11:00N 41°30' W 081°42'0 0.0 210 / 81022.5 -1.9 11.7
2016-Dec-21 10:00N 41°30' W 081°42'0 0.0 240 / 101022.2 -1.6 12.0
2016-Dec-21 09:00N 41°30' W 081°42'0 0.0 210 / 81021.5 -1.3 12.0
2016-Dec-21 08:00N 41°30' W 081°42'0 0.0 210 / 81021.2 -1.1 11.4
2016-Dec-21 07:00N 41°30' W 081°42'0 0.0 210 / 101021.2 -1.2 11.4
2016-Dec-21 06:00N 41°30' W 081°42'0 0.0 220 / 111020.8 -1.0 11.3
2016-Dec-21 05:00N 41°30' W 081°42'7 7.5 240 / 171021.2 -0.6 11.0
2016-Dec-21 04:00N 41°36' W 081°36'7 7.5 250 / 301021.2 1.1 12.8
2016-Dec-21 03:00N 41°42' W 081°30'1110.8 250 / 351020.5 1.2 13.2
2016-Dec-21 02:00N 41°48' W 081°18'4 4.5 240 / 381019.5 1.5 13.0
2016-Dec-21 01:00N 41°48' W 081°12'7 7.5 240 / 351019.5 1.8 13.4
2016-Dec-21 00:00N 41°54' W 081°06'4 4.5 250 / 451020.1 2.5 13.8
2016-Dec-20 23:00N 41°54' W 081°00'4 4.5 230 / 271020.1 3.1 13.6
2016-Dec-20 22:00N 41°54' W 080°54'4 4.5 190 / 231019.5 1.7 11.8
2016-Dec-20 21:00N 41°54' W 080°48'0 0.0 190 / 191020.5 1.2 11.2
2016-Dec-20 20:00N 41°54' W 080°48'0 0.0 190 / 201021.2 0.7 11.3
2016-Dec-20 19:00N 41°54' W 080°48'0 0.0 190 / 221022.2 -0.1 11.2
2016-Dec-20 18:00N 41°54' W 080°48'0 0.0 180 / 181023.5 -1.6 11.2
2016-Dec-20 17:00N 41°54' W 080°48'0 0.0 190 / 151025.2 -3.6 11.2
2016-Dec-20 16:00N 41°54' W 080°48'0 0.0 140 / 61027.9 -4.8 10.9
2016-Dec-20 15:00N 41°54' W 080°48'0 0.0 190 / 101029.3 -5.8 10.9
2016-Dec-20 14:00N 41°54' W 080°48'0 0.0 1030.3 -7.5 10.7
2016-Dec-20 13:00N 41°54' W 080°48'0 0.0 270 / 121031.3 -8.9 9.9
2016-Dec-20 12:00N 41°54' W 080°48'0 0.0 1031.7 -9.1 10.0
2016-Dec-20 11:00N 41°54' W 080°48'0 0.0 200 / 101032.3 -9.8 10.0
2016-Dec-20 10:00N 41°54' W 080°48'4 4.5 100 / 181032.7 -8.9 9.7
2016-Dec-20 09:00N 41°54' W 080°54'9 8.9 180 / 151033.4 -8.5 12.7
2016-Dec-20 08:00N 41°54' W 081°06'1110.8 210 / 201034.4 -6.0 12.7
2016-Dec-20 07:00N 41°48' W 081°18'1110.8 190 / 141034.4 -3.2 12.6
2016-Dec-20 06:00N 41°42' W 081°30'7 7.5 200 / 151035.0 -5.3 12.7
2016-Dec-20 05:00N 41°36' W 081°36'7 7.5 200 / 121036.1 -7.2 11.3
2016-Dec-20 04:00N 41°30' W 081°42'0 0.0 140 / 71036.7 -7.4 12.0
2016-Dec-20 03:00N 41°30' W 081°42'0 0.0 100 / 61037.4 -5.9 11.7
2016-Dec-20 02:00N 41°30' W 081°42'0 0.0 200 / 131037.4 -6.6 11.2
2016-Dec-20 01:00N 41°30' W 081°42'0 0.0 220 / 121037.8 -6.0 12.6
2016-Dec-20 00:00N 41°30' W 081°42'0 0.0 200 / 91038.8 -6.3 12.7
2016-Dec-19 23:00N 41°30' W 081°42'0 0.0 210 / 121038.1 -5.8 12.5
2016-Dec-19 22:00N 41°30' W 081°42'0 0.0 270 / 101038.4 -5.9 12.7
2016-Dec-19 21:00N 41°30' W 081°42'0 0.0 260 / 91038.4 -5.9 13.0
2016-Dec-19 20:00N 41°30' W 081°42'0 0.0 150 / 71038.8 -5.4 13.1
2016-Dec-19 19:00N 41°30' W 081°42'0 0.0 260 / 31039.8 -4.3 12.2
2016-Dec-19 18:00N 41°30' W 081°42'7 7.5 130 / 111040.1 -5.9 12.3
2016-Dec-19 17:00N 41°36' W 081°36'1110.8 170 / 121040.1 -6.6 13.5
2016-Dec-19 16:00N 41°42' W 081°24'7 7.5 040 / 111040.1 -5.8 13.8
2016-Dec-19 15:00N 41°48' W 081°18'1110.8 150 / 141040.1 -5.5 14.7
2016-Dec-19 14:00N 41°54' W 081°06'9 8.9 140 / 171039.8 -5.2 14.6
2016-Dec-19 13:00N 41°54' W 080°54'4 4.5 170 / 201039.4 -5.8 14.0
2016-Dec-19 12:00N 41°54' W 080°48'0 0.0 280 / 101039.4 -5.6 11.5
2016-Dec-18 08:00N 41°54' W 080°48'0 0.0 210 / 181006.6 -1.3 11.0
2016-Dec-18 07:00N 41°54' W 080°48'0 0.0 230 / 121004.9 -0.4 11.3
2016-Dec-18 06:00N 41°54' W 080°48'0 0.0 240 / 51003.9 0.2 11.6
2016-Dec-18 05:00N 41°54' W 080°48'0 0.0 270 / 71004.9 0.6 11.5
2016-Dec-18 04:00N 41°54' W 080°48'0 0.0 330 / 81005.6 0.8 11.7
2016-Dec-18 03:00N 41°54' W 080°48'4 4.5 060 / 71004.9 1.1 11.5
2016-Dec-18 02:00N 41°54' W 080°54'9 8.9 340 / 121005.9 1.2 13.8
2016-Dec-18 01:00N 41°54' W 081°06'9 8.9 350 / 161005.9 1.4 14.5
2016-Dec-18 00:00N 41°54' W 081°18'1110.8 350 / 141005.6 2.2 14.6
2016-Dec-17 23:00N 41°48' W 081°30'7 7.5 350 / 161004.9 2.7 14.5
2016-Dec-17 22:00N 41°42' W 081°36'1312.8 340 / 41004.9 3.2 13.4
2016-Dec-17 21:00N 41°30' W 081°42'0 0.0 340 / 31004.6 2.9 11.6
2016-Dec-17 20:00N 41°30' W 081°42'0 0.0 170 / 51004.2 2.9 12.9
2016-Dec-17 19:00N 41°30' W 081°42'0 0.0 170 / 101004.6 3.0 13.1
2016-Dec-17 18:00N 41°30' W 081°42'0 0.0 150 / 71005.2 2.2 13.2
2016-Dec-17 17:00N 41°30' W 081°42'0 0.0 140 / 61006.3 1.4 13.5
2016-Dec-17 16:00N 41°30' W 081°42'0 0.0 150 / 91007.3 1.1 13.2
2016-Dec-17 15:00N 41°30' W 081°42'0 0.0 150 / 71007.3 1.2 13.3
2016-Dec-17 14:00N 41°30' W 081°42'0 0.0 290 / 361006.9 0.8 13.8
2016-Dec-17 13:00N 41°30' W 081°42'0 0.0 230 / 21006.9 0.3 13.6
2016-Dec-17 12:00N 41°30' W 081°42'0 0.0 1006.3 0.1 13.7
2016-Dec-17 11:00N 41°30' W 081°42'0 0.0 110 / 571006.3 -1.9 13.6
2016-Dec-17 10:00N 41°30' W 081°42'0 0.0 020 / 611005.6 -3.1 12.6
2016-Dec-17 09:00N 41°30' W 081°42'7 7.5 340 / 141006.6 -4.7 12.5
2016-Dec-17 08:00N 41°36' W 081°36'7 7.5 160 / 221008.0 -4.1 14.0
2016-Dec-17 07:00N 41°42' W 081°30'1110.8 150 / 261008.6 -3.6 14.3
2016-Dec-17 06:00N 41°48' W 081°18'1110.8 140 / 201011.3 -4.9 14.6
2016-Dec-17 05:00N 41°54' W 081°06'4 4.5 170 / 201014.7 -6.6 14.5
2016-Dec-17 04:00N 41°54' W 081°00'9 8.9 160 / 201015.4 -6.9 13.8
2016-Dec-17 03:00N 41°54' W 080°48'0 0.0 150 / 191017.8 -7.1 11.3
2016-Dec-17 02:00N 41°54' W 080°48'0 0.0 140 / 171018.8 -7.5 11.5
2016-Dec-17 01:00N 41°54' W 080°48'0 0.0 130 / 141020.1 -7.8 11.5
2016-Dec-17 00:00N 41°54' W 080°48'0 0.0 330 / 171021.5 -8.1 11.8
2016-Dec-16 23:00N 41°54' W 080°48'0 0.0 120 / 181021.8 -8.1 11.4
2016-Dec-16 22:00N 41°54' W 080°48'0 0.0 080 / 171023.2 -8.3 11.1
2016-Dec-16 21:00N 41°54' W 080°48'0 0.0 120 / 151023.9 -8.0 11.0
2016-Dec-16 20:00N 41°54' W 080°48'0 0.0 080 / 131024.9 -8.0 11.0
2016-Dec-16 19:00N 41°54' W 080°48'0 0.0 310 / 131024.9 -8.3 11.0
2016-Dec-16 18:00N 41°54' W 080°48'0 0.0 070 / 121025.9 -8.7 10.9
2016-Dec-16 17:00N 41°54' W 080°48'1313.4 180 / 171026.9 -7.9 13.5
2016-Dec-16 16:00N 41°54' W 081°06'1110.8 210 / 191028.6 -8.1 14.4
2016-Dec-16 15:00N 41°48' W 081°18'1110.8 220 / 181028.6 -8.3 14.7
2016-Dec-16 14:00N 41°42' W 081°30'7 7.5 200 / 191028.3 -9.2 14.2
2016-Dec-16 13:00N 41°36' W 081°36'7 7.5 180 / 171028.9 -11.0 14.2
2016-Dec-16 12:00N 41°30' W 081°42'   220 / 111029.3 -11.2 12.3

Dump ship's entire track history